sensor_id;sensor_type;location;lat;lon;timestamp;P1;durP1;ratioP1;P2;durP2;ratioP2
32216;SDS011;67098;51.140;4.088;2023-04-15T00:00:14;8.73;;;4.45;;
32216;SDS011;67098;51.140;4.088;2023-04-15T00:02:41;7.47;;;4.38;;
32216;SDS011;67098;51.140;4.088;2023-04-15T00:05:08;6.88;;;4.53;;
32216;SDS011;67098;51.140;4.088;2023-04-15T00:07:34;10.60;;;4.50;;
32216;SDS011;67098;51.140;4.088;2023-04-15T00:10:00;8.52;;;3.67;;
32216;SDS011;67098;51.140;4.088;2023-04-15T00:12:26;10.55;;;4.57;;
32216;SDS011;67098;51.140;4.088;2023-04-15T00:14:52;9.18;;;3.80;;
32216;SDS011;67098;51.140;4.088;2023-04-15T00:17:18;7.38;;;3.70;;
32216;SDS011;67098;51.140;4.088;2023-04-15T00:19:44;7.57;;;3.85;;
32216;SDS011;67098;51.140;4.088;2023-04-15T00:22:10;6.97;;;3.72;;
32216;SDS011;67098;51.140;4.088;2023-04-15T00:24:36;9.05;;;3.88;;
32216;SDS011;67098;51.140;4.088;2023-04-15T00:27:02;7.75;;;3.70;;
32216;SDS011;67098;51.140;4.088;2023-04-15T00:29:28;11.32;;;3.85;;
32216;SDS011;67098;51.140;4.088;2023-04-15T00:31:54;7.28;;;3.58;;
32216;SDS011;67098;51.140;4.088;2023-04-15T00:34:21;9.02;;;3.50;;
32216;SDS011;67098;51.140;4.088;2023-04-15T00:36:47;7.53;;;3.33;;
32216;SDS011;67098;51.140;4.088;2023-04-15T00:39:13;6.53;;;3.35;;
32216;SDS011;67098;51.140;4.088;2023-04-15T00:41:40;7.28;;;3.75;;
32216;SDS011;67098;51.140;4.088;2023-04-15T00:44:06;4.82;;;3.22;;
32216;SDS011;67098;51.140;4.088;2023-04-15T00:46:32;8.43;;;3.72;;
32216;SDS011;67098;51.140;4.088;2023-04-15T00:49:00;6.60;;;3.53;;
32216;SDS011;67098;51.140;4.088;2023-04-15T00:51:28;5.97;;;3.33;;
32216;SDS011;67098;51.140;4.088;2023-04-15T00:53:55;6.45;;;3.72;;
32216;SDS011;67098;51.140;4.088;2023-04-15T00:56:21;9.57;;;3.80;;
32216;SDS011;67098;51.140;4.088;2023-04-15T00:58:48;5.85;;;3.45;;
32216;SDS011;67098;51.140;4.088;2023-04-15T01:01:15;6.60;;;3.45;;
32216;SDS011;67098;51.140;4.088;2023-04-15T01:03:45;5.03;;;3.17;;
32216;SDS011;67098;51.140;4.088;2023-04-15T01:06:11;4.57;;;3.03;;
32216;SDS011;67098;51.140;4.088;2023-04-15T01:08:38;5.00;;;3.22;;
32216;SDS011;67098;51.140;4.088;2023-04-15T01:11:03;7.93;;;3.45;;
32216;SDS011;67098;51.140;4.088;2023-04-15T01:13:30;5.95;;;3.20;;
32216;SDS011;67098;51.140;4.088;2023-04-15T01:15:58;4.85;;;3.03;;
32216;SDS011;67098;51.140;4.088;2023-04-15T01:18:24;5.22;;;3.38;;
32216;SDS011;67098;51.140;4.088;2023-04-15T01:20:50;6.90;;;3.33;;
32216;SDS011;67098;51.140;4.088;2023-04-15T01:23:16;4.80;;;3.38;;
32216;SDS011;67098;51.140;4.088;2023-04-15T01:25:42;5.22;;;3.22;;
32216;SDS011;67098;51.140;4.088;2023-04-15T01:28:09;7.38;;;3.53;;
32216;SDS011;67098;51.140;4.088;2023-04-15T01:30:35;5.28;;;3.30;;
32216;SDS011;67098;51.140;4.088;2023-04-15T01:33:00;6.70;;;3.25;;
32216;SDS011;67098;51.140;4.088;2023-04-15T01:35:26;6.03;;;3.47;;
32216;SDS011;67098;51.140;4.088;2023-04-15T01:37:52;5.30;;;3.60;;
32216;SDS011;67098;51.140;4.088;2023-04-15T01:40:20;6.82;;;3.13;;
32216;SDS011;67098;51.140;4.088;2023-04-15T01:42:46;5.03;;;3.13;;
32216;SDS011;67098;51.140;4.088;2023-04-15T01:45:12;6.28;;;3.13;;
32216;SDS011;67098;51.140;4.088;2023-04-15T01:47:38;5.75;;;3.38;;
32216;SDS011;67098;51.140;4.088;2023-04-15T01:50:04;5.40;;;3.25;;
32216;SDS011;67098;51.140;4.088;2023-04-15T01:52:31;5.68;;;3.58;;
32216;SDS011;67098;51.140;4.088;2023-04-15T01:54:56;5.47;;;3.63;;
32216;SDS011;67098;51.140;4.088;2023-04-15T01:57:22;5.47;;;3.55;;
32216;SDS011;67098;51.140;4.088;2023-04-15T01:59:48;6.47;;;3.70;;
32216;SDS011;67098;51.140;4.088;2023-04-15T02:02:13;5.78;;;3.63;;
32216;SDS011;67098;51.140;4.088;2023-04-15T02:04:39;6.68;;;3.30;;
32216;SDS011;67098;51.140;4.088;2023-04-15T02:07:05;5.28;;;3.70;;
32216;SDS011;67098;51.140;4.088;2023-04-15T02:09:31;10.13;;;3.40;;
32216;SDS011;67098;51.140;4.088;2023-04-15T02:11:57;7.95;;;3.22;;
32216;SDS011;67098;51.140;4.088;2023-04-15T02:14:22;6.97;;;3.83;;
32216;SDS011;67098;51.140;4.088;2023-04-15T02:16:48;6.90;;;3.38;;
32216;SDS011;67098;51.140;4.088;2023-04-15T02:19:13;6.07;;;3.50;;
32216;SDS011;67098;51.140;4.088;2023-04-15T02:21:39;5.25;;;3.60;;
32216;SDS011;67098;51.140;4.088;2023-04-15T02:24:05;5.18;;;3.38;;
32216;SDS011;67098;51.140;4.088;2023-04-15T02:26:31;7.50;;;4.05;;
32216;SDS011;67098;51.140;4.088;2023-04-15T02:28:57;7.18;;;4.10;;
32216;SDS011;67098;51.140;4.088;2023-04-15T02:31:23;6.90;;;3.72;;
32216;SDS011;67098;51.140;4.088;2023-04-15T02:33:50;5.05;;;3.60;;
32216;SDS011;67098;51.140;4.088;2023-04-15T02:36:16;7.97;;;3.95;;
32216;SDS011;67098;51.140;4.088;2023-04-15T02:38:41;8.80;;;3.60;;
32216;SDS011;67098;51.140;4.088;2023-04-15T02:41:08;7.78;;;4.20;;
32216;SDS011;67098;51.140;4.088;2023-04-15T02:43:34;6.65;;;4.05;;
32216;SDS011;67098;51.140;4.088;2023-04-15T02:46:00;6.45;;;3.65;;
32216;SDS011;67098;51.140;4.088;2023-04-15T02:48:25;8.10;;;4.10;;
32216;SDS011;67098;51.140;4.088;2023-04-15T02:50:51;6.65;;;3.50;;
32216;SDS011;67098;51.140;4.088;2023-04-15T02:53:17;8.13;;;3.85;;
32216;SDS011;67098;51.140;4.088;2023-04-15T02:55:43;5.80;;;3.75;;
32216;SDS011;67098;51.140;4.088;2023-04-15T02:58:10;8.10;;;4.30;;
32216;SDS011;67098;51.140;4.088;2023-04-15T03:00:36;5.28;;;3.90;;
32216;SDS011;67098;51.140;4.088;2023-04-15T03:03:03;7.50;;;4.30;;
32216;SDS011;67098;51.140;4.088;2023-04-15T03:05:30;7.30;;;4.15;;
32216;SDS011;67098;51.140;4.088;2023-04-15T03:07:56;8.00;;;4.22;;
32216;SDS011;67098;51.140;4.088;2023-04-15T03:10:21;6.97;;;4.38;;
32216;SDS011;67098;51.140;4.088;2023-04-15T03:12:47;6.57;;;3.92;;
32216;SDS011;67098;51.140;4.088;2023-04-15T03:15:13;9.20;;;5.07;;
32216;SDS011;67098;51.140;4.088;2023-04-15T03:17:39;12.45;;;5.70;;
32216;SDS011;67098;51.140;4.088;2023-04-15T03:20:05;10.13;;;5.47;;
32216;SDS011;67098;51.140;4.088;2023-04-15T03:22:31;9.63;;;5.65;;
32216;SDS011;67098;51.140;4.088;2023-04-15T03:24:57;10.38;;;5.60;;
32216;SDS011;67098;51.140;4.088;2023-04-15T03:27:23;9.82;;;5.97;;
32216;SDS011;67098;51.140;4.088;2023-04-15T03:29:49;10.05;;;6.25;;
32216;SDS011;67098;51.140;4.088;2023-04-15T03:32:15;14.65;;;6.50;;
32216;SDS011;67098;51.140;4.088;2023-04-15T03:34:41;8.75;;;5.90;;
32216;SDS011;67098;51.140;4.088;2023-04-15T03:37:07;8.25;;;5.63;;
32216;SDS011;67098;51.140;4.088;2023-04-15T03:39:33;9.70;;;6.18;;
32216;SDS011;67098;51.140;4.088;2023-04-15T03:41:58;8.15;;;6.00;;
32216;SDS011;67098;51.140;4.088;2023-04-15T03:44:25;12.02;;;5.85;;
32216;SDS011;67098;51.140;4.088;2023-04-15T03:46:51;12.27;;;6.03;;
32216;SDS011;67098;51.140;4.088;2023-04-15T03:49:17;9.23;;;5.18;;
32216;SDS011;67098;51.140;4.088;2023-04-15T03:51:43;9.43;;;6.15;;
32216;SDS011;67098;51.140;4.088;2023-04-15T03:54:09;11.88;;;5.60;;
32216;SDS011;67098;51.140;4.088;2023-04-15T03:56:35;8.82;;;5.85;;
32216;SDS011;67098;51.140;4.088;2023-04-15T03:59:01;9.82;;;6.28;;
32216;SDS011;67098;51.140;4.088;2023-04-15T04:01:27;9.50;;;6.20;;
32216;SDS011;67098;51.140;4.088;2023-04-15T04:03:52;10.18;;;5.45;;
32216;SDS011;67098;51.140;4.088;2023-04-15T04:06:18;9.63;;;5.78;;
32216;SDS011;67098;51.140;4.088;2023-04-15T04:08:44;12.65;;;5.68;;
32216;SDS011;67098;51.140;4.088;2023-04-15T04:11:09;8.07;;;5.40;;
32216;SDS011;67098;51.140;4.088;2023-04-15T04:13:35;9.07;;;5.13;;
32216;SDS011;67098;51.140;4.088;2023-04-15T04:16:01;14.35;;;5.53;;
32216;SDS011;67098;51.140;4.088;2023-04-15T04:18:28;8.95;;;5.07;;
32216;SDS011;67098;51.140;4.088;2023-04-15T04:20:55;9.35;;;4.95;;
32216;SDS011;67098;51.140;4.088;2023-04-15T04:23:21;6.78;;;5.15;;
32216;SDS011;67098;51.140;4.088;2023-04-15T04:25:46;11.00;;;5.57;;
32216;SDS011;67098;51.140;4.088;2023-04-15T04:28:12;8.13;;;5.38;;
32216;SDS011;67098;51.140;4.088;2023-04-15T04:30:38;7.95;;;5.53;;
32216;SDS011;67098;51.140;4.088;2023-04-15T04:33:04;13.65;;;5.25;;
32216;SDS011;67098;51.140;4.088;2023-04-15T04:35:31;8.50;;;5.70;;
32216;SDS011;67098;51.140;4.088;2023-04-15T04:37:59;8.48;;;5.15;;
32216;SDS011;67098;51.140;4.088;2023-04-15T04:40:25;11.38;;;5.50;;
32216;SDS011;67098;51.140;4.088;2023-04-15T04:42:51;10.52;;;5.88;;
32216;SDS011;67098;51.140;4.088;2023-04-15T04:45:18;9.77;;;5.72;;
32216;SDS011;67098;51.140;4.088;2023-04-15T04:47:44;11.93;;;5.78;;
32216;SDS011;67098;51.140;4.088;2023-04-15T04:50:10;12.45;;;6.00;;
32216;SDS011;67098;51.140;4.088;2023-04-15T04:52:36;10.27;;;5.80;;
32216;SDS011;67098;51.140;4.088;2023-04-15T04:55:02;11.85;;;5.95;;
32216;SDS011;67098;51.140;4.088;2023-04-15T04:57:28;10.93;;;5.40;;
32216;SDS011;67098;51.140;4.088;2023-04-15T04:59:54;12.57;;;6.05;;
32216;SDS011;67098;51.140;4.088;2023-04-15T05:02:19;10.00;;;5.10;;
32216;SDS011;67098;51.140;4.088;2023-04-15T05:04:45;9.98;;;6.07;;
32216;SDS011;67098;51.140;4.088;2023-04-15T05:07:11;10.63;;;5.82;;
32216;SDS011;67098;51.140;4.088;2023-04-15T05:09:37;15.88;;;6.65;;
32216;SDS011;67098;51.140;4.088;2023-04-15T05:12:03;20.33;;;7.93;;
32216;SDS011;67098;51.140;4.088;2023-04-15T05:14:28;21.55;;;8.13;;
32216;SDS011;67098;51.140;4.088;2023-04-15T05:16:55;12.95;;;6.30;;
32216;SDS011;67098;51.140;4.088;2023-04-15T05:19:20;15.65;;;6.28;;
32216;SDS011;67098;51.140;4.088;2023-04-15T05:21:46;10.30;;;5.97;;
32216;SDS011;67098;51.140;4.088;2023-04-15T05:24:12;11.07;;;4.78;;
32216;SDS011;67098;51.140;4.088;2023-04-15T05:26:37;8.25;;;3.17;;
32216;SDS011;67098;51.140;4.088;2023-04-15T05:29:03;5.10;;;2.38;;
32216;SDS011;67098;51.140;4.088;2023-04-15T05:31:29;7.32;;;2.80;;
32216;SDS011;67098;51.140;4.088;2023-04-15T05:33:54;10.35;;;2.97;;
32216;SDS011;67098;51.140;4.088;2023-04-15T05:36:20;9.02;;;3.03;;
32216;SDS011;67098;51.140;4.088;2023-04-15T05:38:46;11.63;;;3.38;;
32216;SDS011;67098;51.140;4.088;2023-04-15T05:41:11;7.95;;;3.88;;
32216;SDS011;67098;51.140;4.088;2023-04-15T05:43:39;9.73;;;4.05;;
32216;SDS011;67098;51.140;4.088;2023-04-15T05:46:05;10.70;;;4.03;;
32216;SDS011;67098;51.140;4.088;2023-04-15T05:48:32;9.20;;;4.18;;
32216;SDS011;67098;51.140;4.088;2023-04-15T05:50:58;9.57;;;4.18;;
32216;SDS011;67098;51.140;4.088;2023-04-15T05:53:24;10.32;;;3.90;;
32216;SDS011;67098;51.140;4.088;2023-04-15T05:55:50;10.15;;;4.22;;
32216;SDS011;67098;51.140;4.088;2023-04-15T05:58:16;9.73;;;5.00;;
32216;SDS011;67098;51.140;4.088;2023-04-15T06:00:42;10.65;;;4.72;;
32216;SDS011;67098;51.140;4.088;2023-04-15T06:03:08;11.80;;;5.72;;
32216;SDS011;67098;51.140;4.088;2023-04-15T06:05:35;11.68;;;5.55;;
32216;SDS011;67098;51.140;4.088;2023-04-15T06:08:01;13.05;;;5.55;;
32216;SDS011;67098;51.140;4.088;2023-04-15T06:10:27;14.25;;;6.35;;
32216;SDS011;67098;51.140;4.088;2023-04-15T06:12:52;15.63;;;6.60;;
32216;SDS011;67098;51.140;4.088;2023-04-15T06:15:18;12.88;;;6.43;;
32216;SDS011;67098;51.140;4.088;2023-04-15T06:17:44;10.85;;;6.32;;
32216;SDS011;67098;51.140;4.088;2023-04-15T06:20:09;16.35;;;5.90;;
32216;SDS011;67098;51.140;4.088;2023-04-15T06:22:36;15.05;;;6.68;;
32216;SDS011;67098;51.140;4.088;2023-04-15T06:25:03;14.63;;;5.63;;
32216;SDS011;67098;51.140;4.088;2023-04-15T06:27:29;13.40;;;6.60;;
32216;SDS011;67098;51.140;4.088;2023-04-15T06:29:55;17.00;;;7.32;;
32216;SDS011;67098;51.140;4.088;2023-04-15T06:32:20;16.85;;;7.63;;
32216;SDS011;67098;51.140;4.088;2023-04-15T06:34:46;15.25;;;6.97;;
32216;SDS011;67098;51.140;4.088;2023-04-15T06:37:11;15.60;;;6.80;;
32216;SDS011;67098;51.140;4.088;2023-04-15T06:39:40;13.35;;;7.05;;
32216;SDS011;67098;51.140;4.088;2023-04-15T06:42:06;16.45;;;7.00;;
32216;SDS011;67098;51.140;4.088;2023-04-15T06:44:33;14.52;;;6.97;;
32216;SDS011;67098;51.140;4.088;2023-04-15T06:46:58;15.82;;;7.20;;
32216;SDS011;67098;51.140;4.088;2023-04-15T06:49:25;25.20;;;8.23;;
32216;SDS011;67098;51.140;4.088;2023-04-15T06:51:50;17.38;;;7.10;;
32216;SDS011;67098;51.140;4.088;2023-04-15T06:54:16;16.30;;;7.93;;
32216;SDS011;67098;51.140;4.088;2023-04-15T06:56:42;22.48;;;8.70;;
32216;SDS011;67098;51.140;4.088;2023-04-15T06:59:08;17.20;;;9.27;;
32216;SDS011;67098;51.140;4.088;2023-04-15T07:01:34;20.20;;;9.90;;
32216;SDS011;67098;51.140;4.088;2023-04-15T07:03:59;17.90;;;10.32;;
32216;SDS011;67098;51.140;4.088;2023-04-15T07:06:25;22.75;;;11.35;;
32216;SDS011;67098;51.140;4.088;2023-04-15T07:08:51;15.73;;;10.73;;
32216;SDS011;67098;51.140;4.088;2023-04-15T07:11:18;20.48;;;11.45;;
32216;SDS011;67098;51.140;4.088;2023-04-15T07:13:45;20.98;;;12.32;;
32216;SDS011;67098;51.140;4.088;2023-04-15T07:16:10;19.95;;;12.07;;
32216;SDS011;67098;51.140;4.088;2023-04-15T07:18:36;18.95;;;11.90;;
32216;SDS011;67098;51.140;4.088;2023-04-15T07:21:02;27.98;;;12.48;;
32216;SDS011;67098;51.140;4.088;2023-04-15T07:23:28;22.55;;;12.88;;
32216;SDS011;67098;51.140;4.088;2023-04-15T07:25:54;23.60;;;12.90;;
32216;SDS011;67098;51.140;4.088;2023-04-15T07:28:19;22.10;;;12.27;;
32216;SDS011;67098;51.140;4.088;2023-04-15T07:30:45;25.75;;;12.18;;
32216;SDS011;67098;51.140;4.088;2023-04-15T07:33:11;23.52;;;12.82;;
32216;SDS011;67098;51.140;4.088;2023-04-15T07:35:36;20.02;;;11.25;;
32216;SDS011;67098;51.140;4.088;2023-04-15T07:38:02;20.33;;;11.80;;
32216;SDS011;67098;51.140;4.088;2023-04-15T07:40:28;20.48;;;11.27;;
32216;SDS011;67098;51.140;4.088;2023-04-15T07:42:55;22.23;;;11.43;;
32216;SDS011;67098;51.140;4.088;2023-04-15T07:45:22;21.17;;;12.20;;
32216;SDS011;67098;51.140;4.088;2023-04-15T07:47:48;23.38;;;13.48;;
32216;SDS011;67098;51.140;4.088;2023-04-15T07:50:15;21.63;;;11.27;;
32216;SDS011;67098;51.140;4.088;2023-04-15T07:52:41;20.35;;;12.30;;
32216;SDS011;67098;51.140;4.088;2023-04-15T07:55:08;22.80;;;12.27;;
32216;SDS011;67098;51.140;4.088;2023-04-15T07:57:34;19.75;;;10.77;;
32216;SDS011;67098;51.140;4.088;2023-04-15T08:00:01;24.80;;;11.75;;
32216;SDS011;67098;51.140;4.088;2023-04-15T08:02:29;20.77;;;11.20;;
32216;SDS011;67098;51.140;4.088;2023-04-15T08:04:55;20.00;;;11.10;;
32216;SDS011;67098;51.140;4.088;2023-04-15T08:07:21;24.83;;;10.43;;
32216;SDS011;67098;51.140;4.088;2023-04-15T08:09:47;16.73;;;10.27;;
32216;SDS011;67098;51.140;4.088;2023-04-15T08:12:13;19.02;;;11.18;;
32216;SDS011;67098;51.140;4.088;2023-04-15T08:14:38;23.35;;;11.48;;
32216;SDS011;67098;51.140;4.088;2023-04-15T08:17:04;23.90;;;11.00;;
32216;SDS011;67098;51.140;4.088;2023-04-15T08:19:30;18.75;;;11.55;;
32216;SDS011;67098;51.140;4.088;2023-04-15T08:21:56;40.33;;;21.70;;
32216;SDS011;67098;51.140;4.088;2023-04-15T08:24:22;24.40;;;13.07;;
32216;SDS011;67098;51.140;4.088;2023-04-15T08:26:50;22.20;;;12.68;;
32216;SDS011;67098;51.140;4.088;2023-04-15T08:29:16;32.83;;;15.82;;
32216;SDS011;67098;51.140;4.088;2023-04-15T08:31:42;17.15;;;11.05;;
32216;SDS011;67098;51.140;4.088;2023-04-15T08:34:07;22.27;;;12.63;;
32216;SDS011;67098;51.140;4.088;2023-04-15T08:36:33;21.55;;;11.25;;
32216;SDS011;67098;51.140;4.088;2023-04-15T08:38:59;16.85;;;9.30;;
32216;SDS011;67098;51.140;4.088;2023-04-15T08:41:30;24.35;;;12.10;;
32216;SDS011;67098;51.140;4.088;2023-04-15T08:44:04;20.52;;;11.82;;
32216;SDS011;67098;51.140;4.088;2023-04-15T08:46:30;15.88;;;9.07;;
32216;SDS011;67098;51.140;4.088;2023-04-15T08:49:00;24.05;;;13.00;;
32216;SDS011;67098;51.140;4.088;2023-04-15T08:51:28;18.35;;;10.65;;
32216;SDS011;67098;51.140;4.088;2023-04-15T08:53:54;17.67;;;11.02;;
32216;SDS011;67098;51.140;4.088;2023-04-15T08:56:22;18.30;;;9.95;;
32216;SDS011;67098;51.140;4.088;2023-04-15T08:58:50;16.23;;;11.18;;
32216;SDS011;67098;51.140;4.088;2023-04-15T09:01:16;20.27;;;9.90;;
32216;SDS011;67098;51.140;4.088;2023-04-15T09:03:43;13.93;;;9.30;;
32216;SDS011;67098;51.140;4.088;2023-04-15T09:06:09;19.23;;;11.50;;
32216;SDS011;67098;51.140;4.088;2023-04-15T09:08:35;21.88;;;10.55;;
32216;SDS011;67098;51.140;4.088;2023-04-15T09:11:01;16.73;;;9.98;;
32216;SDS011;67098;51.140;4.088;2023-04-15T09:13:27;12.27;;;8.60;;
32216;SDS011;67098;51.140;4.088;2023-04-15T09:15:54;15.10;;;7.50;;
32216;SDS011;67098;51.140;4.088;2023-04-15T09:18:28;11.85;;;7.13;;
32216;SDS011;67098;51.140;4.088;2023-04-15T09:20:55;11.70;;;7.07;;
32216;SDS011;67098;51.140;4.088;2023-04-15T09:23:59;10.73;;;7.20;;
32216;SDS011;67098;51.140;4.088;2023-04-15T09:26:35;13.15;;;6.88;;
32216;SDS011;67098;51.140;4.088;2023-04-15T09:29:05;11.02;;;5.80;;
32216;SDS011;67098;51.140;4.088;2023-04-15T09:31:32;20.83;;;11.23;;
32216;SDS011;67098;51.140;4.088;2023-04-15T09:33:57;13.57;;;7.45;;
32216;SDS011;67098;51.140;4.088;2023-04-15T09:36:23;8.82;;;5.88;;
32216;SDS011;67098;51.140;4.088;2023-04-15T09:38:58;14.60;;;8.25;;
32216;SDS011;67098;51.140;4.088;2023-04-15T09:41:25;8.82;;;5.22;;
32216;SDS011;67098;51.140;4.088;2023-04-15T09:43:51;12.95;;;6.90;;
32216;SDS011;67098;51.140;4.088;2023-04-15T09:46:17;24.20;;;12.35;;
32216;SDS011;67098;51.140;4.088;2023-04-15T09:48:43;7.65;;;5.30;;
32216;SDS011;67098;51.140;4.088;2023-04-15T09:51:08;13.70;;;7.75;;
32216;SDS011;67098;51.140;4.088;2023-04-15T09:53:35;23.55;;;10.13;;
32216;SDS011;67098;51.140;4.088;2023-04-15T09:56:02;13.43;;;5.63;;
32216;SDS011;67098;51.140;4.088;2023-04-15T09:58:29;11.07;;;5.55;;
32216;SDS011;67098;51.140;4.088;2023-04-15T10:00:57;21.67;;;8.95;;
32216;SDS011;67098;51.140;4.088;2023-04-15T10:03:25;18.42;;;7.25;;
32216;SDS011;67098;51.140;4.088;2023-04-15T10:05:53;12.15;;;5.68;;
32216;SDS011;67098;51.140;4.088;2023-04-15T10:08:21;20.10;;;8.38;;
32216;SDS011;67098;51.140;4.088;2023-04-15T10:10:49;14.45;;;7.20;;
32216;SDS011;67098;51.140;4.088;2023-04-15T10:13:20;10.20;;;4.85;;
32216;SDS011;67098;51.140;4.088;2023-04-15T10:15:53;10.82;;;5.53;;
32216;SDS011;67098;51.140;4.088;2023-04-15T10:18:26;16.25;;;7.20;;
32216;SDS011;67098;51.140;4.088;2023-04-15T10:20:53;7.03;;;3.92;;
32216;SDS011;67098;51.140;4.088;2023-04-15T10:23:19;8.93;;;4.45;;
32216;SDS011;67098;51.140;4.088;2023-04-15T10:25:47;4.50;;;3.35;;
32216;SDS011;67098;51.140;4.088;2023-04-15T10:28:15;7.05;;;3.75;;
32216;SDS011;67098;51.140;4.088;2023-04-15T10:30:41;6.20;;;4.03;;
32216;SDS011;67098;51.140;4.088;2023-04-15T10:33:08;5.68;;;3.65;;
32216;SDS011;67098;51.140;4.088;2023-04-15T10:35:35;7.85;;;3.75;;
32216;SDS011;67098;51.140;4.088;2023-04-15T10:38:01;4.18;;;2.95;;
32216;SDS011;67098;51.140;4.088;2023-04-15T10:40:47;8.32;;;3.47;;
32216;SDS011;67098;51.140;4.088;2023-04-15T10:43:23;5.32;;;2.88;;
32216;SDS011;67098;51.140;4.088;2023-04-15T10:45:51;5.05;;;3.03;;
32216;SDS011;67098;51.140;4.088;2023-04-15T10:48:18;6.07;;;2.90;;
32216;SDS011;67098;51.140;4.088;2023-04-15T10:50:54;5.70;;;3.78;;
32216;SDS011;67098;51.140;4.088;2023-04-15T10:53:30;6.38;;;4.10;;
32216;SDS011;67098;51.140;4.088;2023-04-15T10:55:57;5.30;;;3.70;;
32216;SDS011;67098;51.140;4.088;2023-04-15T10:58:23;6.28;;;3.67;;
32216;SDS011;67098;51.140;4.088;2023-04-15T11:00:50;5.75;;;3.45;;
32216;SDS011;67098;51.140;4.088;2023-04-15T11:03:20;9.00;;;3.67;;
32216;SDS011;67098;51.140;4.088;2023-04-15T11:06:03;6.47;;;4.32;;
32216;SDS011;67098;51.140;4.088;2023-04-15T11:08:51;5.82;;;4.28;;
32216;SDS011;67098;51.140;4.088;2023-04-15T11:12:03;6.00;;;3.30;;
32216;SDS011;67098;51.140;4.088;2023-04-15T11:14:27;4.68;;;2.70;;
32216;SDS011;67098;51.140;4.088;2023-04-15T11:16:52;4.70;;;2.72;;
32216;SDS011;67098;51.140;4.088;2023-04-15T11:19:18;4.57;;;3.00;;
32216;SDS011;67098;51.140;4.088;2023-04-15T11:21:44;4.18;;;2.75;;
32216;SDS011;67098;51.140;4.088;2023-04-15T11:24:10;6.20;;;4.20;;
32216;SDS011;67098;51.140;4.088;2023-04-15T11:26:35;5.15;;;3.67;;
32216;SDS011;67098;51.140;4.088;2023-04-15T11:29:01;10.95;;;3.67;;
32216;SDS011;67098;51.140;4.088;2023-04-15T11:31:27;6.82;;;3.95;;
32216;SDS011;67098;51.140;4.088;2023-04-15T11:33:56;8.38;;;3.35;;
32216;SDS011;67098;51.140;4.088;2023-04-15T11:36:26;4.88;;;3.38;;
32216;SDS011;67098;51.140;4.088;2023-04-15T11:38:58;3.95;;;2.72;;
32216;SDS011;67098;51.140;4.088;2023-04-15T11:41:24;6.30;;;2.63;;
32216;SDS011;67098;51.140;4.088;2023-04-15T11:43:50;3.13;;;2.60;;
32216;SDS011;67098;51.140;4.088;2023-04-15T11:46:16;4.10;;;2.90;;
32216;SDS011;67098;51.140;4.088;2023-04-15T11:48:43;5.45;;;2.92;;
32216;SDS011;67098;51.140;4.088;2023-04-15T11:51:11;5.50;;;3.63;;
32216;SDS011;67098;51.140;4.088;2023-04-15T11:56:16;6.63;;;4.32;;
32216;SDS011;67098;51.140;4.088;2023-04-15T11:58:42;4.97;;;2.85;;
32216;SDS011;67098;51.140;4.088;2023-04-15T12:01:10;4.38;;;2.88;;
32216;SDS011;67098;51.140;4.088;2023-04-15T12:03:36;5.10;;;3.00;;
32216;SDS011;67098;51.140;4.088;2023-04-15T12:06:05;6.65;;;3.55;;
32216;SDS011;67098;51.140;4.088;2023-04-15T12:13:57;5.70;;;3.63;;
32216;SDS011;67098;51.140;4.088;2023-04-15T12:16:34;5.88;;;3.35;;
32216;SDS011;67098;51.140;4.088;2023-04-15T12:19:04;7.93;;;4.78;;
32216;SDS011;67098;51.140;4.088;2023-04-15T12:21:40;5.38;;;4.18;;
32216;SDS011;67098;51.140;4.088;2023-04-15T12:24:09;6.00;;;3.60;;
32216;SDS011;67098;51.140;4.088;2023-04-15T12:26:37;5.57;;;3.08;;
32216;SDS011;67098;51.140;4.088;2023-04-15T12:29:12;5.60;;;3.10;;
32216;SDS011;67098;51.140;4.088;2023-04-15T12:32:12;7.07;;;2.72;;
32216;SDS011;67098;51.140;4.088;2023-04-15T12:34:33;6.07;;;2.90;;
32216;SDS011;67098;51.140;4.088;2023-04-15T12:37:01;4.68;;;2.53;;
32216;SDS011;67098;51.140;4.088;2023-04-15T12:39:29;4.85;;;2.67;;
32216;SDS011;67098;51.140;4.088;2023-04-15T12:41:56;6.40;;;3.20;;
32216;SDS011;67098;51.140;4.088;2023-04-15T12:44:23;5.05;;;3.30;;
32216;SDS011;67098;51.140;4.088;2023-04-15T12:46:49;6.97;;;3.00;;
32216;SDS011;67098;51.140;4.088;2023-04-15T12:49:16;4.78;;;2.70;;
32216;SDS011;67098;51.140;4.088;2023-04-15T12:51:44;4.90;;;2.45;;
32216;SDS011;67098;51.140;4.088;2023-04-15T12:54:12;2.90;;;2.15;;
32216;SDS011;67098;51.140;4.088;2023-04-15T12:56:38;5.32;;;2.40;;
32216;SDS011;67098;51.140;4.088;2023-04-15T12:59:04;7.55;;;2.22;;
32216;SDS011;67098;51.140;4.088;2023-04-15T13:01:29;8.07;;;2.45;;
32216;SDS011;67098;51.140;4.088;2023-04-15T13:03:55;6.03;;;2.75;;
32216;SDS011;67098;51.140;4.088;2023-04-15T13:06:21;7.65;;;3.50;;
32216;SDS011;67098;51.140;4.088;2023-04-15T13:08:48;6.95;;;3.13;;
32216;SDS011;67098;51.140;4.088;2023-04-15T13:11:13;5.95;;;3.22;;
32216;SDS011;67098;51.140;4.088;2023-04-15T13:13:39;5.85;;;3.22;;
32216;SDS011;67098;51.140;4.088;2023-04-15T13:16:05;4.68;;;3.00;;
32216;SDS011;67098;51.140;4.088;2023-04-15T13:18:31;5.13;;;2.88;;
32216;SDS011;67098;51.140;4.088;2023-04-15T13:20:58;5.55;;;2.35;;
32216;SDS011;67098;51.140;4.088;2023-04-15T13:23:25;4.18;;;1.90;;
32216;SDS011;67098;51.140;4.088;2023-04-15T13:25:50;2.35;;;1.40;;
32216;SDS011;67098;51.140;4.088;2023-04-15T13:28:16;4.63;;;1.30;;
32216;SDS011;67098;51.140;4.088;2023-04-15T13:30:42;6.72;;;1.65;;
32216;SDS011;67098;51.140;4.088;2023-04-15T13:33:08;6.00;;;2.05;;
32216;SDS011;67098;51.140;4.088;2023-04-15T13:35:33;5.90;;;1.70;;
32216;SDS011;67098;51.140;4.088;2023-04-15T13:38:00;5.32;;;2.58;;
32216;SDS011;67098;51.140;4.088;2023-04-15T13:40:25;4.78;;;2.13;;
32216;SDS011;67098;51.140;4.088;2023-04-15T13:42:51;4.80;;;1.90;;
32216;SDS011;67098;51.140;4.088;2023-04-15T13:45:17;6.20;;;1.95;;
32216;SDS011;67098;51.140;4.088;2023-04-15T13:47:43;6.55;;;2.95;;
32216;SDS011;67098;51.140;4.088;2023-04-15T13:50:09;4.65;;;2.15;;
32216;SDS011;67098;51.140;4.088;2023-04-15T13:52:35;4.75;;;2.40;;
32216;SDS011;67098;51.140;4.088;2023-04-15T13:55:02;4.65;;;2.70;;
32216;SDS011;67098;51.140;4.088;2023-04-15T13:57:28;8.07;;;2.40;;
32216;SDS011;67098;51.140;4.088;2023-04-15T13:59:53;4.97;;;2.58;;
32216;SDS011;67098;51.140;4.088;2023-04-15T14:02:20;4.93;;;2.13;;
32216;SDS011;67098;51.140;4.088;2023-04-15T14:04:46;3.92;;;2.20;;
32216;SDS011;67098;51.140;4.088;2023-04-15T14:07:11;6.53;;;2.80;;
32216;SDS011;67098;51.140;4.088;2023-04-15T14:09:37;5.05;;;3.15;;
32216;SDS011;67098;51.140;4.088;2023-04-15T14:12:03;7.05;;;3.25;;
32216;SDS011;67098;51.140;4.088;2023-04-15T14:14:29;8.02;;;4.10;;
32216;SDS011;67098;51.140;4.088;2023-04-15T14:16:54;6.75;;;3.35;;
32216;SDS011;67098;51.140;4.088;2023-04-15T14:19:21;6.40;;;4.40;;
32216;SDS011;67098;51.140;4.088;2023-04-15T14:21:47;9.45;;;4.50;;
32216;SDS011;67098;51.140;4.088;2023-04-15T14:24:13;8.27;;;4.03;;
32216;SDS011;67098;51.140;4.088;2023-04-15T14:26:38;5.03;;;3.25;;
32216;SDS011;67098;51.140;4.088;2023-04-15T14:29:04;8.63;;;4.20;;
32216;SDS011;67098;51.140;4.088;2023-04-15T14:31:30;7.68;;;4.15;;
32216;SDS011;67098;51.140;4.088;2023-04-15T14:33:55;8.23;;;4.28;;
32216;SDS011;67098;51.140;4.088;2023-04-15T14:36:21;9.25;;;3.92;;
32216;SDS011;67098;51.140;4.088;2023-04-15T14:38:47;8.18;;;3.92;;
32216;SDS011;67098;51.140;4.088;2023-04-15T14:41:12;12.35;;;4.53;;
32216;SDS011;67098;51.140;4.088;2023-04-15T14:43:38;8.52;;;3.97;;
32216;SDS011;67098;51.140;4.088;2023-04-15T14:46:03;5.88;;;3.90;;